Time;durP1;ratioP1;P1;durP2;ratioP2;P2;SDS_P1;SDS_P2;PMS_P1;PMS_P2;Temp;Humidity;BMP_temperature;BMP_pressure;BME280_temperature;BME280_humidity;BME280_pressure;Samples;Min_cycle;Max_cycle;Signal;HPM_P1;HPM_P2
2022/12/03 00:00:34;;;;;;;18.27;12.67;;;;;;;-0.32;100.00;100466.34;4987032;28;20226;-70
2022/12/03 00:02:59;;;;;;;16.10;11.70;;;;;;;-0.30;100.00;100469.69;5011685;28;20692;-70
2022/12/03 00:05:25;;;;;;;19.63;13.53;;;;;;;-0.31;100.00;100462.13;5007677;28;20248;-70
2022/12/03 00:07:50;;;;;;;20.40;13.90;;;;;;;-0.37;100.00;100468.88;5012745;28;20211;-73
2022/12/03 00:10:15;;;;;;;20.93;12.90;;;;;;;-0.38;100.00;100468.91;5004027;28;20635;-71
2022/12/03 00:12:41;;;;;;;20.87;14.07;;;;;;;-0.42;100.00;100460.47;5017083;28;20183;-73
2022/12/03 00:15:07;;;;;;;20.93;13.27;;;;;;;-0.46;100.00;100460.50;5003302;28;20197;-72
2022/12/03 00:17:32;;;;;;;23.67;15.13;;;;;;;-0.42;100.00;100460.47;5027199;28;20273;-73
2022/12/03 00:19:58;;;;;;;20.20;14.23;;;;;;;-0.40;100.00;100460.47;5012747;28;20257;-73
2022/12/03 00:22:23;;;;;;;19.30;13.40;;;;;;;-0.35;100.00;100454.56;5018111;28;20265;-74
2022/12/03 00:24:48;;;;;;;22.00;14.23;;;;;;;-0.39;100.00;100452.88;5012833;28;20270;-73
2022/12/03 00:27:14;;;;;;;19.50;14.10;;;;;;;-0.34;100.00;100461.28;5012327;28;20269;-74
2022/12/03 00:29:39;;;;;;;20.03;14.03;;;;;;;-0.30;100.00;100457.03;5012641;28;20194;-74
2022/12/03 00:32:04;;;;;;;22.13;14.10;;;;;;;-0.32;100.00;100458.75;4996690;28;20230;-74
2022/12/03 00:34:29;;;;;;;21.43;14.87;;;;;;;-0.35;100.00;100456.22;5002366;28;20188;-73
2022/12/03 00:36:55;;;;;;;19.90;12.93;;;;;;;-0.36;100.00;100452.88;5008080;28;20545;-74
2022/12/03 00:39:20;;;;;;;20.47;14.13;;;;;;;-0.30;100.00;100448.63;5012923;28;20237;-73
2022/12/03 00:41:45;;;;;;;21.97;14.80;;;;;;;-0.28;100.00;100457.88;5015454;28;20301;-74
2022/12/03 00:44:11;;;;;;;20.63;14.00;;;;;;;-0.26;100.00;100456.22;5014975;28;20252;-74
2022/12/03 00:46:36;;;;;;;20.10;14.13;;;;;;;-0.30;100.00;100443.56;5011783;28;20205;-74
2022/12/03 00:49:02;;;;;;;20.40;13.83;;;;;;;-0.29;100.00;100448.63;5012412;28;20236;-73
2022/12/03 00:51:27;;;;;;;22.57;14.30;;;;;;;-0.25;100.00;100451.97;5012198;28;20226;-73
2022/12/03 00:53:52;;;;;;;21.70;15.37;;;;;;;-0.30;100.00;100452.00;4994748;28;20178;-74
2022/12/03 00:56:17;;;;;;;22.30;14.50;;;;;;;-0.30;100.00;100443.56;5011873;28;20229;-71
2022/12/03 00:58:43;;;;;;;21.17;14.73;;;;;;;-0.27;100.00;100446.94;5010601;28;20524;-73
2022/12/03 01:01:08;;;;;;;20.13;15.17;;;;;;;-0.29;100.00;100442.72;5010186;28;20320;-73
2022/12/03 01:03:34;;;;;;;24.53;16.33;;;;;;;-0.25;100.00;100450.31;5015597;28;20182;-73
2022/12/03 01:06:02;;;;;;;23.70;14.97;;;;;;;-0.24;100.00;100443.56;5012124;28;20186;-73
2022/12/03 01:08:27;;;;;;;24.07;16.33;;;;;;;-0.21;100.00;100449.44;5024234;28;20221;-73
2022/12/03 01:10:52;;;;;;;23.30;14.57;;;;;;;-0.19;100.00;100444.38;4986960;28;20533;-73
2022/12/03 01:13:17;;;;;;;24.37;15.33;;;;;;;-0.20;100.00;100448.59;5010749;28;20308;-73
2022/12/03 01:15:43;;;;;;;26.63;16.83;;;;;;;-0.15;100.00;100443.50;5012165;28;20200;-73
2022/12/03 01:18:08;;;;;;;24.20;15.47;;;;;;;-0.17;100.00;100440.97;5011878;28;20187;-73
2022/12/03 01:20:35;;;;;;;23.10;16.10;;;;;;;-0.14;100.00;100445.19;5006050;28;20320;-73
2022/12/03 01:23:00;;;;;;;28.67;17.27;;;;;;;-0.07;100.00;100443.47;5027027;28;20196;-73
2022/12/03 01:25:26;;;;;;;24.70;15.37;;;;;;;-0.15;100.00;100445.19;5011977;28;20189;-72
2022/12/03 01:27:51;;;;;;;22.63;14.97;;;;;;;-0.12;100.00;100446.03;5010147;28;20250;-73
2022/12/03 01:30:16;;;;;;;23.70;15.13;;;;;;;-0.11;100.00;100444.31;5003806;28;20186;-72
2022/12/03 01:32:42;;;;;;;25.77;15.80;;;;;;;-0.13;100.00;100456.16;4998860;28;20634;-70
2022/12/03 01:35:07;;;;;;;23.90;14.83;;;;;;;-0.13;100.00;100448.56;5011752;28;20182;-71
2022/12/03 01:37:33;;;;;;;21.90;14.10;;;;;;;-0.07;100.00;100454.41;4998170;28;20178;-71
2022/12/03 01:39:58;;;;;;;25.90;16.60;;;;;;;-0.04;100.00;100453.56;5012270;28;20185;-71
2022/12/03 01:42:30;;;;;;;24.73;16.50;;;;;;;0.02;100.00;100453.53;5000460;28;20273;-71
2022/12/03 01:44:58;;;;;;;26.10;16.27;;;;;;;0.03;100.00;100452.69;5015622;28;20533;-71
2022/12/03 01:47:28;;;;;;;26.60;16.83;;;;;;;0.04;100.00;100451.00;5025020;28;20178;-71
2022/12/03 01:49:59;;;;;;;30.73;17.07;;;;;;;0.08;100.00;100455.19;5011843;28;20194;-71
2022/12/03 01:52:30;;;;;;;24.53;16.23;;;;;;;0.14;100.00;100455.16;5016724;28;20233;-71
2022/12/03 01:54:58;;;;;;;24.97;15.73;;;;;;;0.11;100.00;100457.69;5009411;28;20261;-71
2022/12/03 01:57:33;;;;;;;25.13;16.23;;;;;;;0.10;100.00;100454.34;5010934;28;20191;-71
2022/12/03 01:59:59;;;;;;;24.80;16.83;;;;;;;0.12;100.00;100455.16;5026906;28;20217;-71
2022/12/03 02:02:28;;;;;;;26.43;16.53;;;;;;;0.12;100.00;100455.16;5012680;28;20219;-71
2022/12/03 02:04:54;;;;;;;24.47;15.30;;;;;;;0.14;100.00;100458.53;5026614;28;20271;-70
2022/12/03 02:07:24;;;;;;;24.30;16.93;;;;;;;0.20;100.00;100451.75;5020008;28;20211;-70
2022/12/03 02:09:50;;;;;;;29.03;16.13;;;;;;;0.22;100.00;100453.41;5014223;28;20285;-70
2022/12/03 02:12:18;;;;;;;27.43;15.60;;;;;;;0.26;100.00;100460.16;5020821;28;20224;-71
2022/12/03 02:14:44;;;;;;;27.37;16.20;;;;;;;0.24;100.00;100461.84;5015520;28;20194;-70
2022/12/03 02:17:11;;;;;;;24.93;16.37;;;;;;;0.23;100.00;100462.69;5014751;28;20641;-70
2022/12/03 02:19:36;;;;;;;25.07;16.13;;;;;;;0.22;100.00;100462.69;5014646;28;20178;-70
2022/12/03 02:22:11;;;;;;;23.33;15.70;;;;;;;0.30;100.00;100468.56;5020117;28;20233;-71
2022/12/03 02:24:44;;;;;;;24.57;15.17;;;;;;;0.32;100.00;100461.78;5030638;28;20236;-70
2022/12/03 02:27:09;;;;;;;21.57;14.40;;;;;;;0.36;100.00;100463.47;5029640;28;20186;-70
2022/12/03 02:29:35;;;;;;;21.20;14.97;;;;;;;0.34;100.00;100464.34;5015170;28;20278;-71
2022/12/03 02:32:00;;;;;;;22.20;15.50;;;;;;;0.37;100.00;100457.53;5022903;28;20296;-71
2022/12/03 02:34:52;;;;;;;21.27;13.93;;;;;;;0.31;100.00;100458.44;5015095;28;20171;-71
2022/12/03 02:37:31;;;;;;;24.37;14.47;;;;;;;0.34;100.00;100456.75;5012378;28;20190;-71
2022/12/03 02:40:02;;;;;;;22.10;14.90;;;;;;;0.37;100.00;100454.16;5030112;28;20179;-71
2022/12/03 02:42:34;;;;;;;23.23;14.67;;;;;;;0.37;100.00;100451.63;5019559;28;20601;-71
2022/12/03 02:45:05;;;;;;;22.63;14.70;;;;;;;0.37;100.00;100451.63;5012961;28;20193;-70
2022/12/03 02:47:32;;;;;;;19.60;14.53;;;;;;;0.39;100.00;100439.81;5013155;28;20182;-72
2022/12/03 02:49:58;;;;;;;22.90;15.57;;;;;;;0.40;100.00;100449.09;5029896;28;20202;-73
2022/12/03 02:52:24;;;;;;;22.43;14.17;;;;;;;0.40;100.00;100449.09;5020332;28;20261;-71
2022/12/03 02:54:50;;;;;;;19.63;12.97;;;;;;;0.44;100.00;100448.22;5012497;28;20634;-71
2022/12/03 02:57:16;;;;;;;18.70;13.70;;;;;;;0.45;100.00;100443.16;5014099;28;20192;-71
2022/12/03 02:59:44;;;;;;;21.80;14.23;;;;;;;0.48;100.00;100442.28;5014446;28;20261;-72
2022/12/03 03:02:10;;;;;;;19.93;13.77;;;;;;;0.41;100.00;100446.56;5013936;28;20675;-72
2022/12/03 03:04:36;;;;;;;21.90;15.10;;;;;;;0.45;100.00;100444.84;5029643;28;20209;-72
2022/12/03 03:07:01;;;;;;;20.57;13.60;;;;;;;0.46;100.00;100444.81;5013653;28;20677;-70
2022/12/03 03:09:27;;;;;;;20.53;13.77;;;;;;;0.48;100.00;100440.59;5014192;28;21566;-70
2022/12/03 03:11:52;;;;;;;19.73;12.77;;;;;;;0.52;100.00;100440.56;5021674;28;20252;-70
2022/12/03 03:14:32;;;;;;;20.67;13.47;;;;;;;0.62;100.00;100450.63;4983016;28;20617;-70
2022/12/03 03:16:58;;;;;;;17.57;12.40;;;;;;;0.56;100.00;100438.00;5013555;28;20195;-70
2022/12/03 03:19:27;;;;;;;19.40;13.07;;;;;;;0.53;100.00;100448.13;5029169;28;20186;-71
2022/12/03 03:21:53;;;;;;;18.17;12.70;;;;;;;0.49;100.00;100443.97;5021991;28;20712;-72
2022/12/03 03:24:20;;;;;;;17.77;12.00;;;;;;;0.46;100.00;100437.22;5014924;28;20290;-71
2022/12/03 03:26:45;;;;;;;18.77;13.17;;;;;;;0.50;100.00;100444.78;5000339;28;20213;-71
2022/12/03 03:29:11;;;;;;;15.70;11.93;;;;;;;0.48;100.00;100438.06;5008233;28;20654;-71
2022/12/03 03:31:37;;;;;;;19.17;13.27;;;;;;;0.47;100.00;100435.53;5014167;28;20257;-71
2022/12/03 03:34:03;;;;;;;16.23;11.63;;;;;;;0.45;100.00;100437.25;5028681;28;20171;-71
2022/12/03 03:36:30;;;;;;;20.03;13.83;;;;;;;0.57;100.00;100441.38;5013323;28;20260;-71
2022/12/03 03:38:55;;;;;;;19.10;12.87;;;;;;;0.52;100.00;100435.50;5028442;28;20179;-70
2022/12/03 03:41:21;;;;;;;19.37;13.87;;;;;;;0.51;100.00;100432.16;5013525;28;20230;-71
2022/12/03 03:43:48;;;;;;;19.03;13.77;;;;;;;0.51;100.00;100432.16;5019051;28;20269;-71
2022/12/03 03:46:15;;;;;;;19.87;13.70;;;;;;;0.55;100.00;100440.56;5028624;28;20182;-70
2022/12/03 03:48:42;;;;;;;18.43;12.30;;;;;;;0.51;100.00;100426.22;5022004;28;20187;-71
2022/12/03 03:51:09;;;;;;;17.97;12.20;;;;;;;0.50;100.00;100429.59;5013708;28;20256;-70
2022/12/03 03:53:40;;;;;;;17.27;12.70;;;;;;;0.53;100.00;100435.47;5012453;28;20170;-71
2022/12/03 03:56:07;;;;;;;17.10;12.03;;;;;;;0.47;100.00;100436.38;5028287;28;20269;-71
2022/12/03 03:58:32;;;;;;;17.47;12.40;;;;;;;0.46;100.00;100431.34;5011576;28;20181;-70
2022/12/03 04:00:59;;;;;;;19.37;12.87;;;;;;;0.52;100.00;100430.44;4991945;28;20226;-70
2022/12/03 04:03:25;;;;;;;14.90;11.23;;;;;;;0.51;100.00;100422.03;5003077;28;20273;-70
2022/12/03 04:05:50;;;;;;;17.17;11.73;;;;;;;0.46;100.00;100421.22;5012978;28;20183;-71
2022/12/03 04:08:16;;;;;;;17.80;11.63;;;;;;;0.46;100.00;100411.09;5012499;28;20194;-70
2022/12/03 04:13:25;;;;;;;17.37;11.73;;;;;;;0.47;100.00;100417.81;5009797;28;20205;-70
2022/12/03 04:15:50;;;;;;;14.60;11.07;;;;;;;0.43;100.00;100413.63;5006110;28;20654;-70
2022/12/03 04:23:43;;;;;;;15.70;10.30;;;;;;;0.45;100.00;100410.25;5005544;28;20205;-71
2022/12/03 04:28:53;;;;;;;17.43;12.23;;;;;;;0.43;100.00;100401.81;5012921;28;20201;-70
2022/12/03 04:36:56;;;;;;;13.83;9.87;;;;;;;0.51;100.00;100404.31;4977549;28;20189;-70
2022/12/03 04:39:22;;;;;;;17.43;11.30;;;;;;;0.51;100.00;100400.91;5006816;28;20261;-70
2022/12/03 04:41:47;;;;;;;13.73;9.93;;;;;;;0.49;100.00;100400.94;5003917;28;20669;-70
2022/12/03 04:46:56;;;;;;;15.63;11.07;;;;;;;0.47;100.00;100395.03;5012103;28;20189;-70
2022/12/03 04:49:22;;;;;;;16.07;11.57;;;;;;;0.46;100.00;100389.13;5006703;28;20187;-70
2022/12/03 04:51:47;;;;;;;16.43;11.87;;;;;;;0.47;100.00;100392.50;5015823;28;20713;-70
2022/12/03 04:54:13;;;;;;;14.90;10.47;;;;;;;0.43;100.00;100399.28;5014285;28;20190;-70
2022/12/03 04:56:38;;;;;;;13.43;10.80;;;;;;;0.39;100.00;100396.81;5011940;28;20664;-69
2022/12/03 04:59:03;;;;;;;12.43;10.17;;;;;;;0.34;100.00;100401.06;5010749;28;20321;-70
2022/12/03 05:01:29;;;;;;;15.63;11.30;;;;;;;0.38;100.00;100398.47;5010715;28;20613;-70
2022/12/03 05:03:54;;;;;;;13.37;10.03;;;;;;;0.41;100.00;100405.19;5011012;28;20251;-70
2022/12/03 05:06:20;;;;;;;17.27;11.50;;;;;;;0.42;100.00;100405.22;5011428;28;20178;-70
2022/12/03 05:08:45;;;;;;;15.77;11.13;;;;;;;0.40;100.00;100398.50;5012120;28;20344;-70
2022/12/03 05:11:10;;;;;;;15.80;10.50;;;;;;;0.34;100.00;100403.59;5010065;28;20229;-70
2022/12/03 05:13:35;;;;;;;14.50;11.13;;;;;;;0.29;100.00;100406.97;5027342;28;20175;-70
2022/12/03 05:16:01;;;;;;;13.60;11.00;;;;;;;0.26;100.00;100404.47;5010645;28;20591;-70
2022/12/03 05:18:26;;;;;;;14.40;11.33;;;;;;;0.28;100.00;100401.94;5011768;28;20189;-70
2022/12/03 05:20:51;;;;;;;14.73;10.87;;;;;;;0.35;100.00;100405.25;5007905;28;20218;-70
2022/12/03 05:23:17;;;;;;;14.33;10.57;;;;;;;0.37;100.00;100401.84;5010537;28;20193;-70
2022/12/03 05:25:42;;;;;;;15.00;11.10;;;;;;;0.36;100.00;100417.06;5012060;28;20190;-70
2022/12/03 05:28:08;;;;;;;14.43;11.23;;;;;;;0.35;100.00;100412.84;5011506;28;20210;-70
2022/12/03 05:30:33;;;;;;;14.93;11.63;;;;;;;0.34;100.00;100414.53;5005438;28;20245;-69
2022/12/03 05:32:59;;;;;;;16.30;12.13;;;;;;;0.41;100.00;100411.13;5026824;28;20179;-70
2022/12/03 05:35:24;;;;;;;15.77;10.87;;;;;;;0.43;100.00;100403.50;5011286;28;20649;-68
2022/12/03 05:37:50;;;;;;;14.07;10.60;;;;;;;0.44;100.00;100410.25;5010959;28;20300;-69
2022/12/03 05:40:15;;;;;;;15.57;11.37;;;;;;;0.42;100.00;100407.75;5017865;28;20190;-68
2022/12/03 05:42:53;;;;;;;13.60;11.07;;;;;;;0.34;100.00;100403.59;5010451;28;20210;-69
2022/12/03 05:45:24;;;;;;;13.03;9.97;;;;;;;0.35;100.00;100408.63;5009465;28;20680;-69
2022/12/03 05:47:50;;;;;;;16.47;10.60;;;;;;;0.30;100.00;100417.97;5006328;28;20183;-69
2022/12/03 05:50:16;;;;;;;13.17;10.13;;;;;;;0.20;100.00;100409.59;5017622;28;20178;-68
2022/12/03 05:52:41;;;;;;;13.37;9.47;;;;;;;0.21;100.00;100408.75;5026868;28;20266;-67
2022/12/03 05:55:07;;;;;;;13.30;9.77;;;;;;;0.21;100.00;100407.88;5011601;28;20174;-68
2022/12/03 05:57:32;;;;;;;14.80;10.93;;;;;;;0.40;100.00;100411.13;5009786;28;20198;-67
2022/12/03 05:59:58;;;;;;;13.40;10.00;;;;;;;0.30;100.00;100407.84;5011589;28;20197;-67
2022/12/03 06:02:23;;;;;;;12.93;9.90;;;;;;;0.35;100.00;100415.38;5011751;28;20231;-68
2022/12/03 06:04:49;;;;;;;13.87;10.57;;;;;;;0.29;100.00;100414.56;5010981;28;20574;-67
2022/12/03 06:07:14;;;;;;;13.17;9.77;;;;;;;0.23;100.00;100412.09;5011131;28;20207;-67
2022/12/03 06:09:39;;;;;;;13.43;10.40;;;;;;;0.26;100.00;100411.22;5011528;28;20642;-67
2022/12/03 06:12:05;;;;;;;12.97;10.57;;;;;;;0.29;100.00;100403.63;5002858;28;20695;-67
2022/12/03 06:14:33;;;;;;;13.87;10.73;;;;;;;0.36;100.00;100406.94;5010215;28;20718;-67
2022/12/03 06:16:59;;;;;;;13.77;11.00;;;;;;;0.28;100.00;100401.94;5010888;28;20187;-67
2022/12/03 06:19:24;;;;;;;14.23;10.00;;;;;;;0.27;100.00;100402.78;5010032;28;20190;-67
2022/12/03 06:21:49;;;;;;;12.80;10.00;;;;;;;0.27;100.00;100402.78;5015234;28;20226;-67
2022/12/03 06:24:14;;;;;;;13.87;10.00;;;;;;;0.38;100.00;100403.53;5012954;28;20718;-67
2022/12/03 06:26:40;;;;;;;15.40;10.83;;;;;;;0.36;100.00;100392.59;5011033;28;20190;-67
2022/12/03 06:29:05;;;;;;;16.10;11.33;;;;;;;0.40;100.00;100391.72;5011141;28;20191;-67
2022/12/03 06:31:30;;;;;;;15.70;10.97;;;;;;;0.47;100.00;100400.09;5018100;28;20226;-67
2022/12/03 06:33:55;;;;;;;14.43;10.63;;;;;;;0.42;100.00;100391.69;5015321;28;20207;-67
2022/12/03 06:36:21;;;;;;;13.70;10.27;;;;;;;0.35;100.00;100392.59;5010741;28;20221;-67
2022/12/03 06:38:46;;;;;;;14.10;9.83;;;;;;;0.30;100.00;100388.41;5011025;28;20665;-67
2022/12/03 06:41:11;;;;;;;17.57;11.33;;;;;;;0.41;100.00;100393.41;5009889;28;20237;-67
2022/12/03 06:43:36;;;;;;;14.77;10.80;;;;;;;0.45;100.00;100389.16;5014541;28;20225;-67
2022/12/03 06:46:02;;;;;;;14.90;11.03;;;;;;;0.48;100.00;100389.97;5009939;28;20587;-67
2022/12/03 06:48:27;;;;;;;14.50;11.30;;;;;;;0.57;100.00;100390.72;4995896;28;20194;-67
2022/12/03 06:50:52;;;;;;;14.30;10.77;;;;;;;0.53;100.00;100386.56;5004043;28;20231;-67
2022/12/03 06:53:18;;;;;;;13.63;10.20;;;;;;;0.46;100.00;100388.31;5007731;28;20191;-67
2022/12/03 06:55:43;;;;;;;15.63;11.33;;;;;;;0.50;100.00;100379.84;5007897;28;20190;-66
2022/12/03 06:58:08;;;;;;;14.63;10.97;;;;;;;0.47;100.00;100387.44;5013893;28;20189;-66
2022/12/03 07:00:33;;;;;;;14.73;11.13;;;;;;;0.42;100.00;100387.50;5001881;28;20732;-66
2022/12/03 07:02:59;;;;;;;13.67;10.33;;;;;;;0.42;100.00;100387.50;5028215;28;20213;-67
2022/12/03 07:05:24;;;;;;;15.73;11.43;;;;;;;0.34;100.00;100394.31;5014066;28;20269;-67
2022/12/03 07:07:50;;;;;;;13.83;10.53;;;;;;;0.35;100.00;100392.59;5013558;28;20243;-66
2022/12/03 07:10:19;;;;;;;14.27;10.87;;;;;;;0.32;100.00;100388.41;5006144;28;20222;-66
2022/12/03 07:12:44;;;;;;;13.50;10.53;;;;;;;0.32;100.00;100391.78;5012804;28;20236;-66
2022/12/03 07:15:09;;;;;;;14.03;10.83;;;;;;;0.34;100.00;100396.00;5014180;28;20691;-66
2022/12/03 07:17:35;;;;;;;15.23;10.87;;;;;;;0.33;100.00;100400.22;5013398;28;20178;-66
2022/12/03 07:20:00;;;;;;;12.57;9.57;;;;;;;0.34;100.00;100403.59;5014561;28;20266;-66
2022/12/03 07:22:25;;;;;;;14.80;10.90;;;;;;;0.39;100.00;100402.69;5002400;28;20225;-66
2022/12/03 07:24:51;;;;;;;13.17;10.40;;;;;;;0.35;100.00;100408.63;5013345;28;20183;-67
2022/12/03 07:27:16;;;;;;;13.80;9.93;;;;;;;0.34;100.00;100403.59;5013177;28;20194;-66
2022/12/03 07:29:41;;;;;;;13.13;9.73;;;;;;;0.33;100.00;100405.28;5012202;28;20209;-67
2022/12/03 07:32:06;;;;;;;16.47;11.07;;;;;;;0.32;100.00;100406.13;5018321;28;20241;-67
2022/12/03 07:34:32;;;;;;;16.00;10.67;;;;;;;0.32;100.00;100406.13;5013467;28;20182;-66
2022/12/03 07:36:57;;;;;;;13.50;11.40;;;;;;;0.38;100.00;100398.47;5026785;28;20576;-66
2022/12/03 07:39:22;;;;;;;12.50;8.83;;;;;;;0.40;100.00;100391.72;5007965;28;20577;-66
2022/12/03 07:41:48;;;;;;;16.53;9.53;;;;;;;0.42;100.00;100394.22;5012702;28;20230;-66
2022/12/03 07:44:13;;;;;;;16.80;11.73;;;;;;;0.46;100.00;100393.38;5015037;28;20232;-67
2022/12/03 07:46:39;;;;;;;13.43;10.30;;;;;;;0.46;100.00;100400.97;5008328;28;20175;-66
2022/12/03 07:49:04;;;;;;;14.17;10.13;;;;;;;0.45;100.00;100394.22;5013532;28;20221;-67
2022/12/03 07:51:29;;;;;;;13.17;10.47;;;;;;;0.49;100.00;100395.88;5009867;28;20231;-67
2022/12/03 07:53:55;;;;;;;15.33;11.73;;;;;;;0.56;100.00;100404.25;5013228;28;20658;-68
2022/12/03 07:56:20;;;;;;;14.80;10.60;;;;;;;0.47;100.00;100398.41;5023299;28;20180;-67
2022/12/03 07:58:45;;;;;;;13.97;10.57;;;;;;;0.48;100.00;100396.72;5012360;28;20190;-68
2022/12/03 08:01:11;;;;;;;13.87;10.60;;;;;;;0.51;100.00;100388.25;4989261;28;20237;-67
2022/12/03 08:03:37;;;;;;;13.97;10.03;;;;;;;0.56;100.00;100389.91;5012650;28;20223;-64
2022/12/03 08:06:02;;;;;;;14.93;11.53;;;;;;;0.65;100.00;100399.09;5011974;28;20218;-66
2022/12/03 08:08:28;;;;;;;15.17;11.60;;;;;;;0.66;100.00;100397.41;4997053;28;20726;-66
2022/12/03 08:10:53;;;;;;;15.40;11.40;;;;;;;0.59;100.00;100391.56;5003780;28;20246;-70
2022/12/03 08:13:18;;;;;;;18.93;11.60;;;;;;;0.63;100.00;100396.59;5022042;28;20182;-69
2022/12/03 08:15:44;;;;;;;14.43;10.73;;;;;;;0.71;100.00;100398.19;5008219;28;20702;-67
2022/12/03 08:18:18;;;;;;;16.40;12.20;;;;;;;0.70;100.00;100399.06;5022166;28;20326;-66
2022/12/03 08:20:46;;;;;;;14.77;11.10;;;;;;;0.90;100.00;100394.66;5020983;28;20712;-59
2022/12/03 08:23:23;;;;;;;14.03;10.67;;;;;;;1.04;100.00;100392.00;5011416;28;20341;-59
2022/12/03 08:25:50;;;;;;;16.13;11.87;;;;;;;1.50;100.00;100402.44;5027830;28;20179;-60
2022/12/03 08:28:25;;;;;;;16.93;11.57;;;;;;;1.29;100.00;100401.88;5027814;28;20213;-69
2022/12/03 08:31:10;;;;;;;17.13;12.47;;;;;;;1.06;100.00;100402.09;4987555;28;20223;-68
2022/12/03 08:33:37;;;;;;;15.43;11.37;;;;;;;0.87;100.00;100396.38;5010128;28;20186;-68
2022/12/03 08:36:24;;;;;;;15.30;11.40;;;;;;;0.82;100.00;100403.19;5005666;28;20186;-68
2022/12/03 08:38:54;;;;;;;17.67;12.07;;;;;;;0.79;100.00;100401.50;4995164;28;20622;-68
2022/12/03 08:44:24;;;;;;;14.60;10.87;;;;;;;0.97;100.00;100392.91;4996423;28;20218;-69
2022/12/03 08:47:07;;;;;;;14.70;10.73;;;;;;;1.04;100.00;100396.19;4998441;28;20593;-69
2022/12/03 08:49:33;;;;;;;16.17;12.30;;;;;;;0.99;100.00;100393.72;5019017;28;20202;-70
2022/12/03 08:52:00;;;;;;;16.93;12.10;;;;;;;0.95;100.00;100394.59;5004374;28;20589;-68
2022/12/03 08:54:27;;;;;;;16.83;12.90;;;;;;;0.94;100.00;100393.78;5010591;28;20206;-68
2022/12/03 08:56:53;;;;;;;17.23;12.17;;;;;;;1.12;100.00;100392.72;5010463;28;20697;-68
2022/12/03 08:59:28;;;;;;;19.07;13.23;;;;;;;1.18;100.00;100396.06;5011038;28;20191;-68
2022/12/03 09:01:54;;;;;;;17.10;12.93;;;;;;;1.28;100.00;100388.34;5009629;28;20226;-68
2022/12/03 09:04:35;;;;;;;15.50;11.63;;;;;;;1.22;100.00;100388.41;5010845;28;20632;-68
2022/12/03 09:07:01;;;;;;;16.67;12.60;;;;;;;1.22;100.00;100400.25;5026231;28;20178;-68
2022/12/03 09:09:26;;;;;;;15.43;12.57;;;;;;;1.27;100.00;100395.97;5012013;28;20197;-68
2022/12/03 09:11:52;;;;;;;18.37;13.37;;;;;;;1.17;100.00;100387.63;5014996;28;20221;-68
2022/12/03 09:14:22;;;;;;;17.10;12.83;;;;;;;1.27;100.00;100396.78;5027049;28;20183;-68
2022/12/03 09:16:54;;;;;;;18.40;13.57;;;;;;;1.34;100.00;100396.72;5011409;28;20618;-68
2022/12/03 09:19:29;;;;;;;21.47;13.17;;;;;;;1.44;100.00;100393.25;5012346;28;20179;-68
2022/12/03 09:21:56;;;;;;;17.80;12.67;;;;;;;1.29;100.00;100390.00;5016345;28;20221;-68
2022/12/03 09:24:21;;;;;;;17.63;12.87;;;;;;;1.21;100.00;100393.50;5012580;28;20233;-68
2022/12/03 09:26:47;;;;;;;17.77;14.33;;;;;;;1.22;100.00;100396.00;5011382;28;20184;-67
2022/12/03 09:29:12;;;;;;;20.47;14.27;;;;;;;1.25;100.00;100390.06;5012127;28;20185;-67
2022/12/03 09:31:38;;;;;;;16.20;12.70;;;;;;;1.28;100.00;100388.34;5014135;28;20246;-69
2022/12/03 09:34:03;;;;;;;17.80;13.87;;;;;;;1.29;100.00;100392.56;5014965;28;20582;-67
2022/12/03 09:36:32;;;;;;;17.27;13.47;;;;;;;1.27;100.00;100386.66;5023623;28;20183;-67
2022/12/03 09:38:57;;;;;;;18.73;14.30;;;;;;;1.33;100.00;100389.97;5009610;28;20337;-67
2022/12/03 09:41:27;;;;;;;19.20;14.10;;;;;;;1.47;100.00;100382.22;5011536;28;20226;-68
2022/12/03 09:43:53;;;;;;;18.70;14.07;;;;;;;1.47;100.00;100375.44;5010557;28;20184;-68
2022/12/03 09:46:20;;;;;;;18.67;13.47;;;;;;;1.60;100.00;100371.91;5010101;28;20186;-69
2022/12/03 09:48:46;;;;;;;19.03;14.63;;;;;;;1.54;100.00;100364.38;5010997;28;20606;-68
2022/12/03 09:51:11;;;;;;;17.73;13.97;;;;;;;1.52;100.00;100366.06;5019723;28;20230;-68
2022/12/03 09:53:38;;;;;;;18.77;14.13;;;;;;;1.52;100.00;100353.41;5017100;28;20213;-68
2022/12/03 09:56:03;;;;;;;17.17;13.17;;;;;;;1.47;100.00;100356.88;5024262;28;20635;-67
2022/12/03 09:58:29;;;;;;;19.73;12.97;;;;;;;1.58;100.00;100360.91;5011461;28;20187;-68
2022/12/03 10:00:55;;;;;;;19.00;13.63;;;;;;;1.43;100.00;100356.88;5000873;28;20977;-68
2022/12/03 10:03:24;;;;;;;20.43;16.13;;;;;;;1.42;100.00;100355.22;5004602;28;20232;-69
2022/12/03 10:05:50;;;;;;;24.57;17.33;;;;;;;1.56;100.00;100356.72;5026957;28;20644;-68
2022/12/03 10:08:20;;;;;;;21.80;15.53;;;;;;;1.68;100.00;100343.06;5026119;28;20214;-68
2022/12/03 10:10:46;;;;;;;20.27;15.40;;;;;;;1.69;100.00;100350.63;5018935;28;20288;-68
2022/12/03 10:13:20;;;;;;;21.13;15.27;;;;;;;1.58;100.00;100347.41;5013836;28;20270;-68
2022/12/03 10:15:47;;;;;;;23.57;14.50;;;;;;;1.59;100.00;100356.72;5009562;28;20194;-69
2022/12/03 10:18:19;;;;;;;19.90;14.33;;;;;;;1.52;100.00;100352.56;5010984;28;20612;-68
2022/12/03 10:20:47;;;;;;;22.20;15.80;;;;;;;1.37;100.00;100351.06;5002957;28;20346;-69
2022/12/03 10:23:25;;;;;;;21.10;14.77;;;;;;;1.37;100.00;100351.91;5012036;28;20257;-69
2022/12/03 10:25:59;;;;;;;20.37;14.87;;;;;;;1.36;100.00;100346.84;5029367;28;20190;-68
2022/12/03 10:28:33;;;;;;;23.60;16.50;;;;;;;1.49;100.00;100350.91;5014606;28;20182;-69
2022/12/03 10:31:01;;;;;;;20.20;14.73;;;;;;;1.52;100.00;100345.78;5022770;28;20671;-68
2022/12/03 10:33:38;;;;;;;22.73;16.03;;;;;;;1.48;100.00;100339.09;5012412;28;20179;-68
2022/12/03 10:36:19;;;;;;;21.90;15.80;;;;;;;1.36;100.00;100334.19;5013606;28;20176;-70
2022/12/03 10:38:45;;;;;;;22.97;15.50;;;;;;;1.40;100.00;100331.59;5012710;28;20187;-69
2022/12/03 10:41:26;;;;;;;21.83;16.47;;;;;;;1.64;100.00;100329.59;5003003;28;20316;-69
2022/12/03 10:43:51;;;;;;;21.00;15.47;;;;;;;1.69;100.00;100329.53;5012151;28;20186;-68
2022/12/03 10:46:20;;;;;;;22.63;15.97;;;;;;;1.57;100.00;100330.53;5022874;28;20179;-68
2022/12/03 10:49:07;;;;;;;20.13;15.23;;;;;;;1.50;100.00;100329.78;5022586;28;20233;-70
2022/12/03 10:51:32;;;;;;;24.83;18.00;;;;;;;1.57;100.00;100327.97;5014985;28;20235;-68
2022/12/03 10:53:57;;;;;;;26.67;17.93;;;;;;;1.58;100.00;100325.41;5017784;28;20178;-68
2022/12/03 10:56:25;;;;;;;25.07;17.67;;;;;;;1.70;100.00;100316.81;5028562;28;20542;-68
2022/12/03 10:58:50;;;;;;;22.03;17.00;;;;;;;1.57;100.00;100322.91;5028638;28;20219;-66
2022/12/03 11:01:20;;;;;;;24.03;16.80;;;;;;;1.54;100.00;100312.81;5020816;28;20245;-65
2022/12/03 11:03:46;;;;;;;24.23;18.90;;;;;;;1.51;100.00;100307.78;5026523;28;20185;-66
2022/12/03 11:06:21;;;;;;;25.17;16.80;;;;;;;1.57;100.00;100307.69;5012424;28;20198;-70
2022/12/03 11:08:52;;;;;;;25.50;18.20;;;;;;;1.58;100.00;100310.22;5028343;28;20260;-69
2022/12/03 11:11:22;;;;;;;23.03;16.50;;;;;;;1.65;100.00;100307.59;5021408;28;20234;-70
2022/12/03 11:13:52;;;;;;;25.70;17.10;;;;;;;1.60;100.00;100305.97;5019053;28;20188;-65
2022/12/03 11:16:39;;;;;;;26.27;17.07;;;;;;;1.52;100.00;100306.94;5028604;28;20184;-67
2022/12/03 11:19:16;;;;;;;26.53;18.23;;;;;;;1.45;100.00;100303.63;5013440;28;20540;-70
2022/12/03 11:22:06;;;;;;;22.90;17.30;;;;;;;1.65;100.00;100298.28;5017723;28;20230;-71
2022/12/03 11:24:33;;;;;;;25.17;17.13;;;;;;;1.68;100.00;100295.69;5013569;28;20605;-67
2022/12/03 11:26:59;;;;;;;21.57;16.30;;;;;;;1.77;100.00;100292.19;5017721;28;20259;-67
2022/12/03 11:29:48;;;;;;;26.47;18.13;;;;;;;1.78;100.00;100286.25;5013204;28;20627;-66
2022/12/03 11:32:41;;;;;;;22.93;16.97;;;;;;;1.70;100.00;100291.47;5017980;28;20285;-66